Fort Bragg, North Carolina
Current Conditions -  °F | °C
As of 8:27 PM on Tuesday 25 Nov 2014 (Local Time) from KPOB Reporting Station
Light Rain Light Rain  
Wind Chill: 52°   Ceiling: 1600
Heat Index: 52°   Visibility: 10mi
Dew Point: 50°   Wind: 5mph
Humidity: 94%   Direction: 110°ESE
Pressure: 30.09"   Gusts: NA
Location:  35.14°N, 79°W
Report Text: KPOB 260127Z AUTO 11004KT 10SM -RA BKN016 OVC035 11/10 A3009 RMK AO2 DZB0107E0109 CIG 016V035
Loading
Personal Weather Stations






























Interactive Weather Map New forecast layout! Learn more

10-Day Weather Forecast

Advertisements
Track Severe Weather on mobile